Airfield :
LOGIN :

Register | Disclaimer

   EN    FR    IT 

 










Legend :    VFR   Marginal VFR   IFR   Intensive IFR   Very Intensive IFR
Visi :
Ceiling :
>= 8 km
>= 3000ft
5 to 8 km
1000 to 3000 ft
1500m to 5 km
500 to 1000 ft
800 to 1500m
200 to 500 ft
< 800m
< 200 ft
Symbols :   Thunderstorms  Fog  Heavy snow  Heavy precipitations  Wind > 20 kt
SIGMETs :     Misc.  Thunderstorms  Icing  Turbulence  Mountain Waves  Volcanic Ashes







- Airport Elevation : 584 ft
- Download approach charts


LFPV - Villacoublay Vélizy

CURRENT METAR :
  • 251800Z AUTO 35007KT 320V050 CAVOK 09/M05 Q1010 NOSIG

EXPIRED METARs :
  • 251730Z AUTO 01008KT 330V040 CAVOK 09/M05 Q1010 NOSIG
  • 251700Z AUTO 35006KT 320V040 CAVOK 09/M05 Q1010 NOSIG
  • 251630Z AUTO 35008KT 330V030 CAVOK 09/M05 Q1010 NOSIG
  • 251600Z AUTO 36007KT 310V030 CAVOK 09/M05 Q1011 NOSIG
  • 251530Z AUTO 02006KT 320V060 CAVOK 10/M05 Q1010 NOSIG

TAF TAF LFPV
Valid from the 25 at 15:00 until the 26 at 15:00 UTC


251400Z 2515/2615 02008KT CAVOK
BECMG 2608/2610 FEW030TCU SCT040
TEMPO 2610/2615 4000 SHRA BKN025CB
PROB30
TEMPO 2612/2615 35016G30KT TSRA
No reported NOTAMs for that airfield.



MET'MAP, your aeronautical weather chart ! - Copyright ORBIFLY December 2007 - Disclaimer

ORBIFLY MET'MAP TEAM :

Programming & Development : Alexandra Zaïnal
Concept & Development : Baudouin d'Aumeries
Co-Development & Prog : Marc-Olivier Méhu
Technical & hardware support : Manuel Goepfert

Contact : metmap@orbifly.com




SOURCES & CREDITS :

   NOAA